« Back
NWS Peachtree City, Ga » Text Product » CSG Terminal Aerodrome Forecast


Printer-friendly Version
Current Version              Previous Versions:   1  2  3  4  5  6  7  8  9  

Terminal Aerodrome Forecast

399
FTUS42 KFFC 270521
TAFCSG
TAF
KCSG 270521Z 2706/2806 31006KT P6SM SCT100
     FM271500 35008KT P6SM SCT045=

USA.gov is the U.S. government's official web portal to all federal, state and local government web resources and services.